Terminal Aerodrome Forecast
Issued by NWS

Home | Current Version | Previous Version | Text Only | Print | Product List | Glossary On
Versions: 1 2 3 4 5 6 7 8 9 10 11 12 13 14 15 16 17 18 19 20 21 22 23 24
000
FTAK31 PAJN 192036 AAA
TAFAPG
TAF AMD
PAPG 192036Z 1921/2018 27006KT 3SM -SN BR FEW008 OVC025
      TEMPO 1921/1923 P6SM NSW BKN040
     FM192300 06004KT P6SM SCT070 SCT100
     FM200300 20002KT 4SM BR SCT120
      AMD LTD TO CLD VIS AND WIND 2006/2015=

USA.gov is the U.S. government's official web portal to all federal, state and local government web resources and services.